createdAt,value
2017-06-16T00:00:44.558Z,60.50
2017-06-16T00:03:14.191Z,61.10
2017-06-16T00:05:42.594Z,61.00
2017-06-16T00:08:11.012Z,61.90
2017-06-16T00:10:40.657Z,60.70
2017-06-16T00:13:09.120Z,60.70
2017-06-16T00:15:37.536Z,61.10
2017-06-16T00:18:06.207Z,61.30
2017-06-16T00:20:34.639Z,61.80
2017-06-16T00:23:03.818Z,61.90
2017-06-16T00:25:32.831Z,61.70
2017-06-16T00:28:02.005Z,62.50
2017-06-16T00:30:30.435Z,62.40
2017-06-16T00:32:59.012Z,62.60
2017-06-16T00:35:27.444Z,64.00
2017-06-16T00:37:55.875Z,63.50
2017-06-16T00:40:24.455Z,64.20
2017-06-16T00:42:52.872Z,63.50
2017-06-16T00:45:21.272Z,63.40
2017-06-16T00:47:49.848Z,63.70
2017-06-16T00:50:18.272Z,63.60
2017-06-16T00:52:46.691Z,63.80
2017-06-16T00:55:15.324Z,63.60
2017-06-16T00:57:44.504Z,63.40
2017-06-16T01:00:13.679Z,65.10
2017-06-16T01:02:42.307Z,64.30
2017-06-16T01:05:10.727Z,64.40
2017-06-16T01:07:39.135Z,64.00
2017-06-16T01:10:07.744Z,64.50
2017-06-16T01:12:36.156Z,64.10
2017-06-16T01:15:04.563Z,64.30
2017-06-16T01:17:33.008Z,64.70
2017-06-16T01:20:01.469Z,64.50
2017-06-16T01:22:29.883Z,63.70
2017-06-16T01:24:58.324Z,63.20
2017-06-16T01:27:26.737Z,63.60
2017-06-16T01:29:55.208Z,63.70
2017-06-16T01:32:23.691Z,63.60
2017-06-16T01:34:52.092Z,63.40
2017-06-16T01:37:20.507Z,62.40
2017-06-16T01:39:49.533Z,62.80
2017-06-16T01:42:17.966Z,62.80
2017-06-16T01:44:45.748Z,62.70
2017-06-16T01:47:14.436Z,63.40
2017-06-16T01:49:42.857Z,63.60
2017-06-16T01:52:11.275Z,64.20
2017-06-16T01:54:40.695Z,64.60
2017-06-16T01:57:09.109Z,64.60
2017-06-16T01:59:37.532Z,64.80
2017-06-16T02:02:06.133Z,64.80
2017-06-16T02:04:35.300Z,64.60
2017-06-16T02:07:03.712Z,64.40
2017-06-16T02:09:32.388Z,64.10
2017-06-16T02:12:01.576Z,65.00
2017-06-16T02:14:30.787Z,64.70
2017-06-16T02:16:59.370Z,64.50
2017-06-16T02:19:27.426Z,63.90
2017-06-16T02:21:56.616Z,64.20
2017-06-16T02:24:25.944Z,64.40
2017-06-16T02:26:54.354Z,64.30
2017-06-16T02:29:22.429Z,63.50
2017-06-16T02:31:50.895Z,64.40
2017-06-16T02:34:19.349Z,63.00
2017-06-16T02:36:47.821Z,63.50
2017-06-16T02:39:16.517Z,63.00
2017-06-16T02:41:44.928Z,64.00
2017-06-16T02:44:13.336Z,63.90
2017-06-16T02:46:41.961Z,63.80
2017-06-16T02:49:10.381Z,63.60
2017-06-16T02:51:38.795Z,63.50
2017-06-16T02:54:08.403Z,63.60
2017-06-16T02:56:37.571Z,64.00
2017-06-16T02:59:05.985Z,63.90
2017-06-16T03:01:35.289Z,64.50
2017-06-16T03:04:03.711Z,63.80
2017-06-16T03:06:32.116Z,64.40
2017-06-16T03:09:11.719Z,64.40
2017-06-16T03:11:40.133Z,63.90
2017-06-16T03:14:08.565Z,63.70
2017-06-16T03:16:37.124Z,64.40
2017-06-16T03:19:05.548Z,64.60
2017-06-16T03:21:39.820Z,64.90
2017-06-16T03:24:08.060Z,64.00
2017-06-16T03:26:36.470Z,64.30
2017-06-16T03:29:05.672Z,63.50
2017-06-16T03:31:34.845Z,64.50
2017-06-16T03:34:03.255Z,64.50
2017-06-16T03:36:31.691Z,64.80
2017-06-16T03:39:00.102Z,65.20
2017-06-16T03:41:28.564Z,64.40
2017-06-16T03:43:57.784Z,65.00
2017-06-16T03:46:26.208Z,64.50
2017-06-16T03:48:54.616Z,64.20
2017-06-16T03:51:24.239Z,64.30
2017-06-16T03:53:53.429Z,65.00
2017-06-16T03:56:22.599Z,64.70
2017-06-16T03:58:51.149Z,64.60
2017-06-16T04:01:19.560Z,64.20
2017-06-16T04:03:47.981Z,64.70
2017-06-16T04:06:16.660Z,64.70
2017-06-16T04:08:45.067Z,64.40
2017-06-16T04:11:13.519Z,64.50
2017-06-16T04:13:42.407Z,64.70
2017-06-16T04:16:11.581Z,64.90
2017-06-16T04:18:40.785Z,65.10
2017-06-16T04:21:10.202Z,64.70
2017-06-16T04:23:38.626Z,64.60
2017-06-16T04:26:07.045Z,64.50
2017-06-16T04:28:36.455Z,65.00
2017-06-16T04:31:05.639Z,64.70
2017-06-16T04:33:34.820Z,64.80
2017-06-16T04:36:03.407Z,64.70
2017-06-16T04:38:31.818Z,64.50
2017-06-16T04:41:00.232Z,64.60
2017-06-16T04:43:28.773Z,65.30
2017-06-16T04:45:57.960Z,64.60
2017-06-16T04:48:27.136Z,65.30
2017-06-16T04:50:55.621Z,65.30
2017-06-16T04:53:24.035Z,65.50
2017-06-16T04:55:52.443Z,66.00
2017-06-16T04:58:20.548Z,65.50
2017-06-16T05:00:49.032Z,65.50
2017-06-16T05:03:17.456Z,65.50
2017-06-16T05:05:46.224Z,65.50
2017-06-16T05:08:14.635Z,65.40
2017-06-16T05:10:43.059Z,65.60
2017-06-16T05:13:11.673Z,65.40
2017-06-16T05:15:40.257Z,65.50
2017-06-16T05:18:08.696Z,65.30
2017-06-16T05:20:37.268Z,66.40
2017-06-16T05:23:11.159Z,65.60
2017-06-16T05:25:39.628Z,65.60
2017-06-16T05:28:08.044Z,66.00
2017-06-16T05:30:36.456Z,65.60
2017-06-16T05:33:05.245Z,66.40
2017-06-16T05:35:33.655Z,66.00
2017-06-16T05:38:02.089Z,66.00
2017-06-16T05:40:31.495Z,66.40
2017-06-16T05:42:59.907Z,66.40
2017-06-16T05:45:28.364Z,65.70
2017-06-16T05:47:56.812Z,67.00
2017-06-16T05:50:25.247Z,66.30
2017-06-16T05:52:53.663Z,64.60
2017-06-16T05:55:22.283Z,65.30
2017-06-16T05:57:50.709Z,64.80
2017-06-16T06:00:19.124Z,65.10
2017-06-16T06:02:48.542Z,65.60
2017-06-16T06:05:16.948Z,65.40
2017-06-16T06:07:45.367Z,65.40
2017-06-16T06:10:13.989Z,65.10
2017-06-16T06:12:42.391Z,65.30
2017-06-16T06:15:10.799Z,65.60
2017-06-16T06:17:39.277Z,65.00
2017-06-16T06:20:07.696Z,65.20
2017-06-16T06:22:36.150Z,65.50
2017-06-16T06:25:04.964Z,65.20
2017-06-16T06:27:33.390Z,65.50
2017-06-16T06:30:01.797Z,65.00
2017-06-16T06:32:31.005Z,64.80
2017-06-16T06:35:00.184Z,64.80
2017-06-16T06:37:29.296Z,64.70
2017-06-16T06:39:58.718Z,64.20
2017-06-16T06:42:27.112Z,64.00
2017-06-16T06:44:55.531Z,64.00
2017-06-16T06:47:23.967Z,64.10
2017-06-16T06:49:52.375Z,64.70
2017-06-16T06:52:20.793Z,64.10
2017-06-16T06:54:50.287Z,65.00
2017-06-16T06:57:19.602Z,65.60
2017-06-16T06:59:48.901Z,64.80
2017-06-16T07:02:17.574Z,64.70
2017-06-16T07:04:46.002Z,64.50
2017-06-16T07:07:14.427Z,64.80
2017-06-16T07:09:43.729Z,63.00
2017-06-16T07:12:12.907Z,64.10
2017-06-16T07:14:41.335Z,63.90
2017-06-16T07:17:09.910Z,64.00
2017-06-16T07:19:38.328Z,64.00
2017-06-16T07:22:06.740Z,63.80
2017-06-16T07:24:36.369Z,63.40
2017-06-16T07:27:04.801Z,63.30
2017-06-16T07:29:33.215Z,63.10
2017-06-16T07:32:02.619Z,62.30
2017-06-16T07:34:31.035Z,62.30
2017-06-16T07:36:59.467Z,63.00
2017-06-16T07:39:29.089Z,62.10
2017-06-16T07:41:58.293Z,62.70
2017-06-16T07:44:26.707Z,62.60
2017-06-16T07:46:55.156Z,60.80
2017-06-16T07:49:23.564Z,61.00
2017-06-16T07:51:51.984Z,61.80
2017-06-16T07:54:21.183Z,61.80
2017-06-16T07:56:50.374Z,61.70
2017-06-16T07:59:18.786Z,61.70
2017-06-16T08:01:47.257Z,61.00
2017-06-16T08:04:15.689Z,60.90
2017-06-16T08:06:44.440Z,61.80
2017-06-16T08:09:13.132Z,60.70
2017-06-16T08:11:41.559Z,61.50
2017-06-16T08:14:09.972Z,60.70
2017-06-16T08:16:38.858Z,60.90
2017-06-16T08:19:07.269Z,61.00
2017-06-16T08:21:35.501Z,60.70
2017-06-16T08:24:04.084Z,60.10
2017-06-16T08:26:33.264Z,59.50
2017-06-16T08:29:02.443Z,59.40
2017-06-16T08:31:30.955Z,59.30
2017-06-16T08:34:00.161Z,59.30
2017-06-16T08:36:28.577Z,59.30
2017-06-16T08:38:57.225Z,59.90
2017-06-16T08:41:25.644Z,59.40
2017-06-16T08:43:54.054Z,59.20
2017-06-16T08:46:22.524Z,58.00
2017-06-16T08:48:50.946Z,57.80
2017-06-16T08:51:19.358Z,57.40
2017-06-16T08:53:47.895Z,57.30
2017-06-16T08:56:17.072Z,57.80
2017-06-16T08:58:46.256Z,58.10
2017-06-16T09:01:14.680Z,58.00
2017-06-16T09:03:42.904Z,58.30
2017-06-16T09:06:11.321Z,58.00
2017-06-16T09:08:39.976Z,57.40
2017-06-16T09:11:08.387Z,56.50
2017-06-16T09:13:36.809Z,56.20
2017-06-16T09:16:05.461Z,56.40
2017-06-16T09:18:33.878Z,56.80
2017-06-16T09:21:02.301Z,56.20
2017-06-16T09:23:30.998Z,56.90
2017-06-16T09:25:59.416Z,56.90
2017-06-16T09:28:27.839Z,57.00
2017-06-16T09:30:57.243Z,55.80
2017-06-16T09:33:25.669Z,55.80
2017-06-16T09:35:54.086Z,56.60
2017-06-16T09:38:23.328Z,57.20
2017-06-16T09:40:51.740Z,57.20
2017-06-16T09:43:20.163Z,56.90
2017-06-16T09:45:48.848Z,56.70
2017-06-16T09:48:17.263Z,57.00
2017-06-16T09:50:45.688Z,57.10
2017-06-16T09:53:15.113Z,54.60
2017-06-16T09:55:43.533Z,54.60
2017-06-16T09:58:11.948Z,54.20
2017-06-16T10:00:41.371Z,55.60
2017-06-16T10:03:09.860Z,55.00
2017-06-16T10:05:38.276Z,55.80
2017-06-16T10:08:06.747Z,56.20
2017-06-16T10:10:35.158Z,56.40
2017-06-16T10:13:03.588Z,56.60
2017-06-16T10:15:32.212Z,56.30
2017-06-16T10:18:00.642Z,56.30
2017-06-16T10:20:29.051Z,55.70
2017-06-16T10:22:57.589Z,55.90
2017-06-16T10:25:26.001Z,54.60
2017-06-16T10:27:54.433Z,53.60
2017-06-16T10:30:23.833Z,52.80
2017-06-16T10:32:53.050Z,52.60
2017-06-16T10:35:21.456Z,52.60
2017-06-16T10:37:50.036Z,52.30
2017-06-16T10:40:18.451Z,52.00
2017-06-16T10:42:46.870Z,53.50
2017-06-16T10:45:15.537Z,52.70
2017-06-16T10:47:44.715Z,53.80
2017-06-16T10:50:13.241Z,53.70
2017-06-16T10:52:41.688Z,52.10
2017-06-16T10:55:10.876Z,51.40
2017-06-16T10:57:39.292Z,51.30
2017-06-16T11:00:07.972Z,49.70
2017-06-16T11:02:36.387Z,51.70
2017-06-16T11:05:04.790Z,52.60
2017-06-16T11:07:34.028Z,50.80
2017-06-16T11:10:02.489Z,50.10
2017-06-16T11:12:31.667Z,48.80
2017-06-16T11:15:00.862Z,50.00
2017-06-16T11:17:29.274Z,49.90
2017-06-16T11:19:57.713Z,49.80
2017-06-16T11:22:26.542Z,49.50
2017-06-16T11:24:55.021Z,49.50
2017-06-16T11:27:23.456Z,48.80
2017-06-16T11:29:52.076Z,49.10
2017-06-16T11:32:20.488Z,49.20
2017-06-16T11:34:48.908Z,49.60
2017-06-16T11:37:17.334Z,48.50
2017-06-16T11:39:45.743Z,47.40
2017-06-16T11:42:14.164Z,46.90
2017-06-16T11:44:43.553Z,48.70
2017-06-16T11:47:12.723Z,49.20
2017-06-16T11:49:40.956Z,49.70
2017-06-16T11:52:09.265Z,49.20
2017-06-16T11:54:37.135Z,49.80
2017-06-16T11:57:05.553Z,49.40
2017-06-16T11:59:34.251Z,49.80
2017-06-16T12:02:02.755Z,49.70
2017-06-16T12:04:31.168Z,50.40
2017-06-16T12:06:59.641Z,49.50
2017-06-16T12:09:28.065Z,49.70
2017-06-16T12:11:56.501Z,49.70
2017-06-16T12:14:25.370Z,48.40
2017-06-16T12:16:53.798Z,48.00
2017-06-16T12:19:22.975Z,47.40
2017-06-16T12:21:51.519Z,47.10
2017-06-16T12:24:19.927Z,48.80
2017-06-16T12:26:48.350Z,46.60
2017-06-16T12:29:16.828Z,47.60
2017-06-16T12:31:45.240Z,46.80
2017-06-16T12:34:13.765Z,48.30
2017-06-16T12:36:43.191Z,50.50
2017-06-16T12:39:11.599Z,49.70
2017-06-16T12:41:40.009Z,49.80
2017-06-16T12:44:08.432Z,50.20
2017-06-16T12:46:36.860Z,50.00
2017-06-16T12:49:05.285Z,50.10
2017-06-16T12:51:34.004Z,49.40
2017-06-16T12:54:02.426Z,49.70
2017-06-16T12:56:31.626Z,46.30
2017-06-16T12:59:00.239Z,46.60
2017-06-16T13:01:28.686Z,47.80
2017-06-16T13:03:57.114Z,46.70
2017-06-16T13:06:25.869Z,46.30
2017-06-16T13:08:55.091Z,48.50
2017-06-16T13:11:23.514Z,48.40
2017-06-16T13:13:52.130Z,48.60
2017-06-16T13:16:20.640Z,48.60
2017-06-16T13:18:49.079Z,48.50
2017-06-16T13:21:18.730Z,48.80
2017-06-16T13:23:47.179Z,48.80
2017-06-16T13:26:16.358Z,48.70
2017-06-16T13:28:45.980Z,48.30
2017-06-16T13:31:14.422Z,48.20
2017-06-16T13:33:42.836Z,48.30
2017-06-16T13:36:12.247Z,47.70
2017-06-16T13:38:40.654Z,47.60
2017-06-16T13:41:09.070Z,48.20
2017-06-16T13:43:37.645Z,46.60
2017-06-16T13:46:06.160Z,46.70
2017-06-16T13:48:34.563Z,47.80
2017-06-16T13:51:03.503Z,47.30
2017-06-16T13:53:31.909Z,46.40
2017-06-16T13:56:00.316Z,46.50
2017-06-16T13:58:28.757Z,46.90
2017-06-16T14:00:57.966Z,47.70
2017-06-16T14:03:26.390Z,47.70
2017-06-16T14:05:55.736Z,47.70
2017-06-16T14:08:24.915Z,48.00
2017-06-16T14:10:53.331Z,48.00
2017-06-16T14:13:21.996Z,48.60
2017-06-16T14:15:51.189Z,48.80
2017-06-16T14:18:20.372Z,46.80
2017-06-16T14:20:48.997Z,46.80
2017-06-16T14:23:17.388Z,46.00
2017-06-16T14:25:45.836Z,46.70
2017-06-16T14:28:14.280Z,47.90
2017-06-16T14:30:42.740Z,47.60
2017-06-16T14:33:11.141Z,48.20
2017-06-16T14:35:39.765Z,48.20
2017-06-16T14:38:08.185Z,48.10
2017-06-16T14:40:36.604Z,48.00
2017-06-16T14:43:05.808Z,48.20
2017-06-16T14:45:35.036Z,47.30
2017-06-16T14:48:03.503Z,47.20
2017-06-16T14:50:32.171Z,47.90
2017-06-16T14:53:00.614Z,47.90
2017-06-16T14:55:28.863Z,47.70
2017-06-16T14:57:57.311Z,47.80
2017-06-16T15:00:25.718Z,47.60
2017-06-16T15:02:54.124Z,48.10
2017-06-16T15:05:22.575Z,48.70
2017-06-16T15:07:50.975Z,48.90
2017-06-16T15:10:19.413Z,48.60
2017-06-16T15:12:48.076Z,48.60
2017-06-16T15:15:17.248Z,48.00
2017-06-16T15:17:45.662Z,48.00
2017-06-16T15:20:13.912Z,48.40
2017-06-16T15:22:47.112Z,47.80
2017-06-16T15:25:16.453Z,48.40
2017-06-16T15:27:44.875Z,48.30
2017-06-16T15:30:13.283Z,48.20
2017-06-16T15:32:42.687Z,48.40
2017-06-16T15:35:11.106Z,48.30
2017-06-16T15:37:39.524Z,47.80
2017-06-16T15:40:08.932Z,47.50
2017-06-16T15:42:38.132Z,47.40
2017-06-16T15:45:07.300Z,47.40
2017-06-16T15:47:35.911Z,46.90
2017-06-16T15:50:05.086Z,48.00
2017-06-16T15:52:33.594Z,47.90
2017-06-16T15:55:02.096Z,48.40
2017-06-16T15:57:30.508Z,47.70
2017-06-16T15:59:58.930Z,48.00
2017-06-16T16:02:28.133Z,47.40
2017-06-16T16:04:57.321Z,47.10
2017-06-16T16:07:26.500Z,46.90
2017-06-16T16:09:54.940Z,46.80
2017-06-16T16:12:23.369Z,47.10
2017-06-16T16:14:52.551Z,47.40
2017-06-16T16:17:20.993Z,46.60
2017-06-16T16:19:49.409Z,47.30
2017-06-16T16:22:17.818Z,46.00
2017-06-16T16:24:46.301Z,46.10
2017-06-16T16:27:15.418Z,45.50
2017-06-16T16:29:43.823Z,46.30
2017-06-16T16:32:12.462Z,45.70
2017-06-16T16:34:40.873Z,45.00
2017-06-16T16:37:09.320Z,45.60
2017-06-16T16:39:38.327Z,46.60
2017-06-16T16:42:06.877Z,46.50
2017-06-16T16:44:36.057Z,46.10
2017-06-16T16:47:04.507Z,46.00
2017-06-16T16:49:32.931Z,47.50
2017-06-16T16:52:01.911Z,47.70
2017-06-16T16:54:30.513Z,47.60
2017-06-16T16:56:58.963Z,48.00
2017-06-16T16:59:27.490Z,47.30
2017-06-16T17:01:56.376Z,46.40
2017-06-16T17:04:25.162Z,46.50
2017-06-16T17:06:53.675Z,46.40
2017-06-16T17:09:22.263Z,47.80
2017-06-16T17:11:50.783Z,47.20
2017-06-16T17:14:20.085Z,47.80
2017-06-16T17:16:49.617Z,47.60
2017-06-16T17:19:18.137Z,47.60
2017-06-16T17:21:46.556Z,48.10
2017-06-16T17:24:17.454Z,46.50
2017-06-16T17:26:46.261Z,46.60
2017-06-16T17:29:15.816Z,46.70
2017-06-16T17:31:45.480Z,46.50
2017-06-16T17:34:14.250Z,46.70
2017-06-16T17:36:43.007Z,46.10
2017-06-16T17:39:11.535Z,46.80
2017-06-16T17:41:40.879Z,46.70
2017-06-16T17:44:09.679Z,46.60
2017-06-16T17:46:38.932Z,47.20
2017-06-16T17:49:07.546Z,48.90
2017-06-16T17:51:35.868Z,47.80
2017-06-16T17:54:04.299Z,49.30
2017-06-16T17:56:32.712Z,47.20
2017-06-16T17:59:01.125Z,46.40
2017-06-16T18:01:29.713Z,47.50
2017-06-16T18:03:58.128Z,46.90
2017-06-16T18:06:26.529Z,47.80
2017-06-16T18:08:54.996Z,48.00
2017-06-16T18:11:23.406Z,48.70
2017-06-16T18:13:52.587Z,49.20
2017-06-16T18:16:21.215Z,49.10
2017-06-16T18:18:49.623Z,50.00
2017-06-16T18:21:18.036Z,49.50
2017-06-16T18:23:46.536Z,50.10
2017-06-16T18:26:15.716Z,49.90
2017-06-16T18:28:44.924Z,49.00
2017-06-16T18:31:14.232Z,49.20
2017-06-16T18:33:42.644Z,49.40
2017-06-16T18:36:11.064Z,49.80
2017-06-16T18:38:39.651Z,50.10
2017-06-16T18:41:08.065Z,50.00
2017-06-16T18:43:36.481Z,50.00
2017-06-16T18:46:05.308Z,49.50
2017-06-16T18:48:34.488Z,50.00
2017-06-16T18:51:02.909Z,49.90
2017-06-16T18:53:31.486Z,50.30
2017-06-16T18:55:59.963Z,50.30
2017-06-16T18:58:28.388Z,50.00
2017-06-16T19:00:57.014Z,50.30
2017-06-16T19:03:26.196Z,51.30
2017-06-16T19:05:55.374Z,50.20
2017-06-16T19:08:23.856Z,50.70
2017-06-16T19:10:52.268Z,49.90
2017-06-16T19:13:21.458Z,50.40
2017-06-16T19:15:50.840Z,50.10
2017-06-16T19:18:19.287Z,50.10
2017-06-16T19:20:47.715Z,50.20
2017-06-16T19:23:16.945Z,50.20
2017-06-16T19:25:45.175Z,50.50
2017-06-16T19:28:15.173Z,51.20
2017-06-16T19:30:44.296Z,51.20
2017-06-16T19:33:12.773Z,50.70
2017-06-16T19:35:41.180Z,51.10
2017-06-16T19:38:09.765Z,51.50
2017-06-16T19:40:38.201Z,51.30
2017-06-16T19:43:06.602Z,50.90
2017-06-16T19:45:36.219Z,51.60
2017-06-16T19:48:04.644Z,51.50
2017-06-16T19:50:33.060Z,51.80
2017-06-16T19:53:02.268Z,51.70
2017-06-16T19:55:31.472Z,52.20
2017-06-16T19:57:59.966Z,52.10
2017-06-16T20:00:28.605Z,51.90
2017-06-16T20:02:57.133Z,51.80
2017-06-16T20:05:25.532Z,50.90
2017-06-16T20:07:53.982Z,52.30
2017-06-16T20:10:22.404Z,52.10
2017-06-16T20:12:50.824Z,52.10
2017-06-16T20:15:20.024Z,51.90
2017-06-16T20:17:49.214Z,52.20
2017-06-16T20:20:18.407Z,52.30
2017-06-16T20:22:47.830Z,52.50
2017-06-16T20:25:16.251Z,52.50
2017-06-16T20:27:44.695Z,52.80
2017-06-16T20:30:13.274Z,52.90
2017-06-16T20:32:41.736Z,53.00
2017-06-16T20:35:10.920Z,53.40
2017-06-16T20:37:40.141Z,53.60
2017-06-16T20:40:08.573Z,53.60
2017-06-16T20:42:36.997Z,54.30
2017-06-16T20:45:05.441Z,54.70
2017-06-16T20:47:33.850Z,55.00
2017-06-16T20:50:03.370Z,55.60
2017-06-16T20:52:32.050Z,55.60
2017-06-16T20:55:00.536Z,55.80
2017-06-16T20:57:28.967Z,55.20
2017-06-16T20:59:59.340Z,55.30
2017-06-16T21:02:27.855Z,55.60
2017-06-16T21:04:56.275Z,55.70
2017-06-16T21:07:25.533Z,56.40
2017-06-16T21:09:53.955Z,56.40
2017-06-16T21:12:22.969Z,56.50
2017-06-16T21:14:51.438Z,56.40
2017-06-16T21:17:19.868Z,56.40
2017-06-16T21:19:48.283Z,56.60
2017-06-16T21:22:23.030Z,57.50
2017-06-16T21:24:51.440Z,57.40
2017-06-16T21:27:19.859Z,57.90
2017-06-16T21:29:49.105Z,58.20
2017-06-16T21:32:17.524Z,58.60
2017-06-16T21:34:46.636Z,58.10
2017-06-16T21:37:15.834Z,59.20
2017-06-16T21:39:45.018Z,59.10
2017-06-16T21:42:13.524Z,59.00
2017-06-16T21:44:42.047Z,59.30
2017-06-16T21:47:10.463Z,59.10
2017-06-16T21:49:38.927Z,59.40
2017-06-16T21:52:07.545Z,59.60
2017-06-16T21:54:35.973Z,59.70
2017-06-16T21:57:04.413Z,60.00
2017-06-16T21:59:33.322Z,60.00
2017-06-16T22:02:01.762Z,59.70
2017-06-16T22:04:30.952Z,59.60
2017-06-16T22:07:00.378Z,59.50
2017-06-16T22:09:28.803Z,59.50
2017-06-16T22:11:57.197Z,59.50
2017-06-16T22:14:25.637Z,59.10
2017-06-16T22:16:54.076Z,59.20
2017-06-16T22:19:23.268Z,59.10
2017-06-16T22:21:51.708Z,59.00
2017-06-16T22:24:20.112Z,58.80
2017-06-16T22:26:48.515Z,58.80
2017-06-16T22:29:17.113Z,58.90
2017-06-16T22:31:45.540Z,59.20
2017-06-16T22:34:13.961Z,59.10
2017-06-16T22:36:42.666Z,59.20
2017-06-16T22:39:11.076Z,59.10
2017-06-16T22:41:39.488Z,59.40
2017-06-16T22:44:08.913Z,59.50
2017-06-16T22:46:37.345Z,59.40
2017-06-16T22:49:05.788Z,59.60
2017-06-16T22:51:34.458Z,59.80
2017-06-16T22:54:02.871Z,60.00
2017-06-16T22:56:31.268Z,60.20
2017-06-16T22:59:00.043Z,60.10
2017-06-16T23:01:28.479Z,60.40
2017-06-16T23:03:56.899Z,61.00
2017-06-16T23:06:25.425Z,60.90
2017-06-16T23:08:54.602Z,60.90
2017-06-16T23:11:23.124Z,60.90
2017-06-16T23:13:51.625Z,60.80
2017-06-16T23:16:20.084Z,61.10
2017-06-16T23:18:48.539Z,60.90
2017-06-16T23:21:17.978Z,61.40
2017-06-16T23:23:47.059Z,61.40
2017-06-16T23:26:15.524Z,61.40
2017-06-16T23:28:44.832Z,61.50
2017-06-16T23:31:13.257Z,61.50
2017-06-16T23:33:41.676Z,61.70
2017-06-16T23:36:10.446Z,62.30
2017-06-16T23:38:39.630Z,62.30
2017-06-16T23:41:08.043Z,62.10
2017-06-16T23:43:36.490Z,62.80
2017-06-16T23:46:04.925Z,63.00
2017-06-16T23:48:33.361Z,63.00
2017-06-16T23:51:02.700Z,63.00
2017-06-16T23:53:31.175Z,62.30
2017-06-16T23:55:59.587Z,62.40
2017-06-16T23:58:28.215Z,62.00
